createdAt,value
2019-01-03T00:00:00.170Z,85.93
2019-01-03T00:01:00.113Z,85.82
2019-01-03T00:02:00.102Z,85.61
2019-01-03T00:03:00.089Z,85.36
2019-01-03T00:04:00.079Z,85.68
2019-01-03T00:05:00.206Z,85.89
2019-01-03T00:06:00.079Z,86.03
2019-01-03T00:07:00.048Z,86.03
2019-01-03T00:08:00.035Z,86.03
2019-01-03T00:09:00.026Z,85.82
2019-01-03T00:10:00.035Z,85.72
2019-01-03T00:11:00.005Z,85.82
2019-01-03T00:11:59.992Z,85.78
2019-01-03T00:12:59.996Z,85.99
2019-01-03T00:13:59.967Z,86.76
2019-01-03T00:14:59.983Z,86.03
2019-01-03T00:15:59.950Z,86.55
2019-01-03T00:16:59.950Z,86.10
2019-01-03T00:17:59.932Z,86.03
2019-01-03T00:18:59.922Z,86.24
2019-01-03T00:19:59.925Z,86.20
2019-01-03T00:20:59.902Z,87.07
2019-01-03T00:21:59.921Z,86.72
2019-01-03T00:22:59.985Z,86.24
2019-01-03T00:23:59.871Z,85.93
2019-01-03T00:24:59.889Z,85.99
2019-01-03T00:25:59.841Z,86.13
2019-01-03T00:26:59.870Z,86.30
2019-01-03T00:27:59.824Z,86.10
2019-01-03T00:28:59.817Z,86.13
2019-01-03T00:29:59.806Z,85.99
2019-01-03T00:30:59.822Z,86.10
2019-01-03T00:31:59.780Z,85.89
2019-01-03T00:32:59.788Z,86.10
2019-01-03T00:33:59.809Z,85.89
2019-01-03T00:34:59.752Z,86.10
2019-01-03T00:35:59.760Z,86.30
2019-01-03T00:36:59.731Z,86.20
2019-01-03T00:37:59.721Z,86.10
2019-01-03T00:38:59.741Z,86.30
2019-01-03T00:39:59.764Z,86.20
2019-01-03T00:41:01.097Z,86.51
2019-01-03T00:41:59.720Z,86.41
2019-01-03T00:42:59.669Z,85.99
2019-01-03T00:43:59.662Z,86.30
2019-01-03T00:44:59.795Z,86.30
2019-01-03T00:45:59.707Z,85.89
2019-01-03T00:46:59.650Z,86.30
2019-01-03T00:47:59.615Z,86.41
2019-01-03T00:48:59.629Z,86.10
2019-01-03T00:49:59.610Z,86.10
2019-01-03T00:50:59.621Z,86.30
2019-01-03T00:51:59.610Z,86.30
2019-01-03T00:52:59.571Z,88.18
2019-01-03T00:53:59.562Z,86.61
2019-01-03T00:54:59.589Z,86.51
2019-01-03T00:55:59.568Z,86.30
2019-01-03T00:56:59.510Z,86.27
2019-01-03T00:57:59.507Z,86.51
2019-01-03T00:58:59.514Z,87.04
2019-01-03T00:59:59.484Z,88.08
2019-01-03T01:00:59.480Z,88.29
2019-01-03T01:01:59.485Z,87.14
2019-01-03T01:02:59.559Z,86.83
2019-01-03T01:03:59.464Z,87.04
2019-01-03T01:04:59.435Z,87.24
2019-01-03T01:05:59.433Z,86.93
2019-01-03T01:06:59.438Z,87.14
2019-01-03T01:07:59.403Z,87.04
2019-01-03T01:08:59.430Z,86.72
2019-01-03T01:09:59.379Z,88.24
2019-01-03T01:10:59.366Z,87.87
2019-01-03T01:11:59.374Z,87.97
2019-01-03T01:12:59.346Z,86.93
2019-01-03T01:13:59.335Z,87.24
2019-01-03T01:14:59.343Z,87.76
2019-01-03T01:15:59.313Z,89.01
2019-01-03T01:16:59.324Z,89.43
2019-01-03T01:17:59.291Z,88.60
2019-01-03T01:18:59.334Z,89.01
2019-01-03T01:19:59.275Z,88.81
2019-01-03T01:20:59.273Z,89.75
2019-01-03T01:21:59.254Z,88.49
2019-01-03T01:22:59.265Z,87.76
2019-01-03T01:23:59.239Z,88.49
2019-01-03T01:24:59.226Z,88.08
2019-01-03T01:25:59.272Z,88.29
2019-01-03T01:26:59.200Z,88.39
2019-01-03T01:27:59.209Z,87.87
2019-01-03T01:28:59.195Z,88.18
2019-01-03T01:29:59.173Z,88.39
2019-01-03T01:30:59.157Z,88.08
2019-01-03T01:31:59.165Z,87.73
2019-01-03T01:32:59.199Z,88.14
2019-01-03T01:33:59.131Z,87.93
2019-01-03T01:34:59.122Z,88.14
2019-01-03T01:35:59.108Z,87.97
2019-01-03T01:36:59.153Z,87.93
2019-01-03T01:37:59.117Z,88.14
2019-01-03T01:38:59.091Z,87.73
2019-01-03T01:39:59.067Z,87.83
2019-01-03T01:40:59.059Z,87.93
2019-01-03T01:41:59.044Z,88.14
2019-01-03T01:42:59.666Z,88.14
2019-01-03T01:43:59.020Z,88.45
2019-01-03T01:44:59.009Z,87.83
2019-01-03T01:45:59.000Z,88.24
2019-01-03T01:46:58.991Z,87.93
2019-01-03T01:47:59.004Z,87.93
2019-01-03T01:48:58.968Z,87.83
2019-01-03T01:49:59.043Z,88.04
2019-01-03T01:50:58.952Z,88.24
2019-01-03T01:51:58.952Z,87.97
2019-01-03T01:52:58.948Z,87.93
2019-01-03T01:53:59.610Z,88.66
2019-01-03T01:55:00.397Z,87.93
2019-01-03T01:55:59.694Z,88.04
2019-01-03T01:56:59.013Z,87.73
2019-01-03T01:59:02.012Z,88.04
2019-01-03T01:59:59.102Z,88.24
2019-01-03T02:00:59.903Z,88.76
2019-01-03T02:01:58.834Z,88.66
2019-01-03T02:02:58.821Z,88.87
2019-01-03T02:03:58.833Z,90.01
2019-01-03T02:04:58.797Z,89.08
2019-01-03T02:05:58.811Z,88.56
2019-01-03T02:06:58.777Z,88.35
2019-01-03T02:07:58.768Z,88.24
2019-01-03T02:08:58.756Z,88.45
2019-01-03T02:09:58.765Z,88.45
2019-01-03T02:10:58.732Z,88.66
2019-01-03T02:11:58.734Z,89.29
2019-01-03T02:12:58.974Z,89.18
2019-01-03T02:13:58.957Z,89.70
2019-01-03T02:14:58.988Z,90.12
2019-01-03T02:15:58.691Z,90.22
2019-01-03T02:16:58.666Z,90.33
2019-01-03T02:17:58.667Z,90.12
2019-01-03T02:18:58.648Z,88.81
2019-01-03T02:19:58.640Z,88.87
2019-01-03T02:20:58.916Z,89.12
2019-01-03T02:21:58.614Z,89.08
2019-01-03T02:22:58.600Z,88.56
2019-01-03T02:23:58.613Z,88.24
2019-01-03T02:24:58.588Z,88.24
2019-01-03T02:25:58.590Z,87.93
2019-01-03T02:26:58.574Z,87.93
2019-01-03T02:27:58.562Z,88.24
2019-01-03T02:29:01.256Z,87.83
2019-01-03T02:29:58.546Z,87.83
2019-01-03T02:30:58.557Z,87.93
2019-01-03T02:31:58.521Z,88.14
2019-01-03T02:32:58.542Z,88.24
2019-01-03T02:33:58.494Z,87.93
2019-01-03T02:34:58.474Z,87.79
2019-01-03T02:35:58.487Z,88.14
2019-01-03T02:36:58.465Z,88.35
2019-01-03T02:37:58.447Z,88.93
2019-01-03T02:38:58.441Z,88.73
2019-01-03T02:39:58.427Z,88.76
2019-01-03T02:40:58.439Z,88.76
2019-01-03T02:41:58.399Z,88.66
2019-01-03T02:42:58.406Z,88.52
2019-01-03T02:43:58.382Z,88.24
2019-01-03T02:44:58.376Z,88.14
2019-01-03T02:45:58.359Z,88.66
2019-01-03T02:46:58.367Z,88.93
2019-01-03T02:47:58.346Z,89.29
2019-01-03T02:48:58.328Z,89.35
2019-01-03T02:49:58.329Z,88.66
2019-01-03T02:50:58.360Z,88.31
2019-01-03T02:51:58.314Z,88.24
2019-01-03T02:52:58.315Z,88.52
2019-01-03T02:53:58.271Z,88.10
2019-01-03T02:54:58.264Z,88.24
2019-01-03T02:55:58.251Z,88.62
2019-01-03T02:56:58.283Z,88.56
2019-01-03T02:57:58.232Z,89.18
2019-01-03T02:58:58.222Z,88.76
2019-01-03T02:59:58.241Z,90.33
2019-01-03T03:00:58.211Z,90.22
2019-01-03T03:01:58.208Z,89.66
2019-01-03T03:02:58.178Z,89.76
2019-01-03T03:03:58.167Z,90.12
2019-01-03T03:04:58.240Z,89.39
2019-01-03T03:05:58.194Z,88.98
2019-01-03T03:06:58.183Z,88.87
2019-01-03T03:07:58.137Z,88.76
2019-01-03T03:08:58.152Z,88.52
2019-01-03T03:09:58.104Z,88.45
2019-01-03T03:10:58.095Z,89.39
2019-01-03T03:11:58.147Z,88.73
2019-01-03T03:12:58.071Z,88.98
2019-01-03T03:13:58.059Z,88.98
2019-01-03T03:14:58.050Z,88.83
2019-01-03T03:15:58.038Z,88.62
2019-01-03T03:16:58.047Z,88.35
2019-01-03T03:17:58.032Z,88.24
2019-01-03T03:18:58.056Z,88.76
2019-01-03T03:19:57.999Z,89.29
2019-01-03T03:20:57.987Z,89.08
2019-01-03T03:21:58.002Z,88.87
2019-01-03T03:22:57.995Z,88.98
2019-01-03T03:23:57.958Z,88.56
2019-01-03T03:24:57.941Z,89.29
2019-01-03T03:25:57.935Z,88.93
2019-01-03T03:26:57.938Z,89.08
2019-01-03T03:27:57.942Z,88.66
2019-01-03T03:28:57.911Z,89.35
2019-01-03T03:29:57.889Z,89.08
2019-01-03T03:30:57.877Z,89.04
2019-01-03T03:31:57.879Z,89.25
2019-01-03T03:32:57.860Z,88.98
2019-01-03T03:33:57.867Z,89.04
2019-01-03T03:34:57.837Z,89.25
2019-01-03T03:35:57.871Z,88.62
2019-01-03T03:36:57.852Z,89.14
2019-01-03T03:37:57.805Z,88.31
2019-01-03T03:38:57.815Z,88.73
2019-01-03T03:39:57.787Z,89.25
2019-01-03T03:40:57.778Z,88.93
2019-01-03T03:41:57.761Z,89.14
2019-01-03T03:42:57.751Z,89.45
2019-01-03T03:43:58.684Z,89.66
2019-01-03T03:44:57.740Z,89.45
2019-01-03T03:45:57.774Z,89.56
2019-01-03T03:46:57.710Z,89.25
2019-01-03T03:47:57.702Z,89.04
2019-01-03T03:48:57.690Z,89.45
2019-01-03T03:49:57.693Z,89.76
2019-01-03T03:50:57.669Z,89.66
2019-01-03T03:51:57.654Z,89.98
2019-01-03T03:52:57.644Z,89.76
2019-01-03T03:53:57.642Z,89.35
2019-01-03T03:54:57.668Z,89.14
2019-01-03T03:55:57.619Z,89.04
2019-01-03T03:56:57.607Z,89.14
2019-01-03T03:57:57.594Z,89.14
2019-01-03T03:58:57.590Z,89.04
2019-01-03T03:59:57.611Z,89.25
2019-01-03T04:00:57.557Z,89.14
2019-01-03T04:01:57.551Z,89.35
2019-01-03T04:02:57.539Z,88.73
2019-01-03T04:03:57.527Z,88.83
2019-01-03T04:04:57.539Z,88.93
2019-01-03T04:05:57.537Z,89.25
2019-01-03T04:06:57.493Z,89.35
2019-01-03T04:07:57.483Z,88.73
2019-01-03T04:08:57.492Z,88.73
2019-01-03T04:09:57.463Z,88.83
2019-01-03T04:10:57.470Z,88.93
2019-01-03T04:11:57.495Z,88.52
2019-01-03T04:12:57.429Z,88.83
2019-01-03T04:13:57.421Z,88.73
2019-01-03T04:14:57.428Z,89.04
2019-01-03T04:15:57.396Z,89.04
2019-01-03T04:16:57.389Z,88.83
2019-01-03T04:17:57.376Z,88.93
2019-01-03T04:18:57.384Z,88.48
2019-01-03T04:19:57.393Z,88.83
2019-01-03T04:20:57.343Z,88.27
2019-01-03T04:21:57.337Z,88.83
2019-01-03T04:22:57.326Z,88.73
2019-01-03T04:23:57.309Z,89.25
2019-01-03T04:24:57.299Z,89.20
2019-01-03T04:25:57.333Z,88.68
2019-01-03T04:26:57.288Z,89.25
2019-01-03T04:27:57.272Z,89.66
2019-01-03T04:28:57.267Z,90.08
2019-01-03T04:29:57.258Z,89.66
2019-01-03T04:30:57.273Z,89.35
2019-01-03T04:31:57.232Z,88.73
2019-01-03T04:32:57.216Z,89.25
2019-01-03T04:33:57.227Z,89.14
2019-01-03T04:34:57.220Z,89.14
2019-01-03T04:35:57.184Z,88.83
2019-01-03T04:36:57.196Z,88.83
2019-01-03T04:37:57.166Z,88.89
2019-01-03T04:38:57.151Z,89.14
2019-01-03T04:39:57.137Z,88.89
2019-01-03T04:40:57.141Z,89.04
2019-01-03T04:41:57.147Z,89.14
2019-01-03T04:42:57.128Z,89.31
2019-01-03T04:43:57.096Z,89.31
2019-01-03T04:44:57.088Z,89.00
2019-01-03T04:45:57.073Z,89.31
2019-01-03T04:46:57.068Z,89.00
2019-01-03T04:47:57.084Z,89.20
2019-01-03T04:48:57.046Z,89.20
2019-01-03T04:49:57.046Z,88.89
2019-01-03T04:50:57.027Z,89.10
2019-01-03T04:51:57.018Z,89.00
2019-01-03T04:52:57.001Z,89.31
2019-01-03T04:53:57.024Z,89.00
2019-01-03T04:54:56.985Z,89.00
2019-01-03T04:55:56.970Z,89.31
2019-01-03T04:56:56.955Z,88.58
2019-01-03T04:57:56.951Z,88.89
2019-01-03T04:58:56.971Z,88.48
2019-01-03T04:59:56.931Z,89.10
2019-01-03T05:00:56.922Z,88.68
2019-01-03T05:01:56.910Z,90.04
2019-01-03T05:02:56.890Z,89.52
2019-01-03T05:03:56.888Z,89.73
2019-01-03T05:04:57.710Z,89.00
2019-01-03T05:05:56.870Z,89.31
2019-01-03T05:06:56.876Z,89.00
2019-01-03T05:08:04.585Z,88.89
2019-01-03T05:08:56.877Z,89.20
2019-01-03T05:09:56.967Z,89.10
2019-01-03T05:11:04.547Z,88.89
2019-01-03T05:11:56.905Z,88.58
2019-01-03T05:13:05.297Z,89.31
2019-01-03T05:13:56.889Z,89.00
2019-01-03T05:14:56.873Z,89.20
2019-01-03T05:15:56.871Z,89.20
2019-01-03T05:16:57.136Z,89.20
2019-01-03T05:17:57.087Z,89.20
2019-01-03T05:18:56.954Z,89.20
2019-01-03T05:19:56.957Z,89.20
2019-01-03T05:20:57.401Z,89.20
2019-01-03T05:21:57.353Z,89.31
2019-01-03T05:22:57.089Z,88.68
2019-01-03T05:23:57.534Z,89.41
2019-01-03T05:24:57.082Z,89.20
2019-01-03T05:25:56.971Z,88.79
2019-01-03T05:26:56.894Z,89.31
2019-01-03T05:27:56.772Z,90.35
2019-01-03T05:28:56.798Z,90.14
2019-01-03T05:29:56.635Z,90.66
2019-01-03T05:30:56.621Z,90.35
2019-01-03T05:31:56.606Z,89.73
2019-01-03T05:32:56.640Z,90.25
2019-01-03T05:33:56.571Z,91.50
2019-01-03T05:34:56.571Z,91.71
2019-01-03T05:35:56.581Z,90.97
2019-01-03T05:36:56.541Z,90.25
2019-01-03T05:37:56.538Z,90.00
2019-01-03T05:38:56.545Z,90.45
2019-01-03T05:39:56.503Z,90.97
2019-01-03T05:40:56.493Z,91.39
2019-01-03T05:41:56.528Z,92.02
2019-01-03T05:42:56.486Z,91.50
2019-01-03T05:43:56.511Z,91.08
2019-01-03T05:44:56.454Z,91.28
2019-01-03T05:45:56.448Z,91.87
2019-01-03T05:46:56.433Z,91.50
2019-01-03T05:47:56.445Z,92.02
2019-01-03T05:48:56.432Z,91.91
2019-01-03T05:49:56.424Z,91.50
2019-01-03T05:50:56.391Z,91.39
2019-01-03T05:51:56.374Z,91.56
2019-01-03T05:52:56.387Z,90.93
2019-01-03T05:53:56.355Z,91.66
2019-01-03T05:54:56.345Z,91.97
2019-01-03T05:55:56.333Z,92.70
2019-01-03T05:56:56.324Z,91.60
2019-01-03T05:57:56.327Z,91.56
2019-01-03T05:58:56.317Z,91.56
2019-01-03T05:59:56.291Z,91.39
2019-01-03T06:00:56.274Z,91.56
2019-01-03T06:01:56.354Z,92.22
2019-01-03T06:02:56.263Z,91.66
2019-01-03T06:03:56.931Z,91.46
2019-01-03T06:04:56.270Z,91.35
2019-01-03T06:45:36.057Z,93.74
2019-01-03T06:46:33.675Z,93.43
2019-01-03T06:47:33.554Z,92.70
2019-01-03T06:48:33.527Z,92.70
2019-01-03T06:49:33.507Z,92.29
2019-01-03T06:50:33.456Z,92.60
2019-01-03T06:51:33.958Z,94.06
2019-01-03T06:52:33.701Z,94.26
2019-01-03T06:53:33.343Z,94.47
2019-01-03T06:54:33.447Z,93.74
2019-01-03T06:55:33.432Z,93.01
2019-01-03T06:56:33.343Z,92.29
2019-01-03T06:57:33.653Z,92.80
2019-01-03T06:58:33.345Z,93.43
2019-01-03T06:59:33.371Z,94.16
2019-01-03T07:00:33.289Z,93.64
2019-01-03T07:01:33.347Z,93.85
2019-01-03T07:02:33.291Z,93.64
2019-01-03T07:03:33.461Z,93.54
2019-01-03T07:04:33.236Z,92.49
2019-01-03T07:05:33.309Z,92.80
2019-01-03T07:06:33.319Z,93.43
2019-01-03T07:07:33.470Z,93.74
2019-01-03T07:08:33.261Z,93.85
2019-01-03T07:09:33.252Z,93.74
2019-01-03T07:10:33.214Z,94.16
2019-01-03T07:11:33.408Z,93.23
2019-01-03T07:12:33.290Z,93.54
2019-01-03T07:13:33.153Z,93.95
2019-01-03T07:14:33.094Z,93.33
2019-01-03T07:15:33.128Z,93.43
2019-01-03T07:16:33.080Z,93.54
2019-01-03T07:17:33.156Z,93.74
2019-01-03T07:18:33.267Z,94.06
2019-01-03T07:19:33.197Z,93.64
2019-01-03T07:20:33.157Z,93.74
2019-01-03T07:21:32.970Z,94.26
2019-01-03T07:22:32.959Z,94.26
2019-01-03T07:23:32.949Z,93.64
2019-01-03T07:24:33.057Z,93.43
2019-01-03T07:25:32.930Z,93.64
2019-01-03T07:26:32.919Z,93.85
2019-01-03T07:27:32.913Z,94.37
2019-01-03T07:28:32.902Z,93.23
2019-01-03T07:29:32.913Z,92.60
2019-01-03T07:30:32.877Z,93.12
2019-01-03T07:31:32.863Z,94.16
2019-01-03T07:32:32.855Z,93.54
2019-01-03T07:33:32.847Z,93.12
2019-01-03T07:34:32.856Z,93.74
2019-01-03T07:35:32.855Z,93.85
2019-01-03T07:36:32.818Z,93.64
2019-01-03T07:37:32.804Z,94.26
2019-01-03T07:38:32.811Z,93.74
2019-01-03T07:39:32.778Z,93.74
2019-01-03T07:40:32.766Z,93.91
2019-01-03T07:41:32.782Z,93.01
2019-01-03T07:42:32.751Z,92.91
2019-01-03T07:43:32.754Z,92.70
2019-01-03T07:44:32.730Z,93.64
2019-01-03T07:45:32.740Z,93.74
2019-01-03T07:46:32.747Z,93.85
2019-01-03T07:47:32.739Z,94.22
2019-01-03T07:48:32.683Z,94.06
2019-01-03T07:49:32.678Z,93.64
2019-01-03T07:50:32.663Z,93.74
2019-01-03T07:51:32.654Z,94.12
2019-01-03T07:52:32.716Z,94.64
2019-01-03T07:53:32.634Z,94.43
2019-01-03T07:54:32.625Z,94.57
2019-01-03T07:55:32.611Z,93.64
2019-01-03T07:56:32.605Z,93.60
2019-01-03T07:57:32.615Z,94.37
2019-01-03T07:58:32.578Z,93.85
2019-01-03T07:59:32.572Z,93.70
2019-01-03T08:00:32.560Z,93.60
2019-01-03T08:01:32.543Z,93.54
2019-01-03T08:02:32.589Z,93.70
2019-01-03T08:03:32.521Z,94.32
2019-01-03T08:04:32.515Z,93.60
2019-01-03T08:05:32.507Z,94.16
2019-01-03T08:06:32.497Z,93.60
2019-01-03T08:07:32.529Z,93.29
2019-01-03T08:08:32.464Z,94.12
2019-01-03T08:09:32.465Z,93.70
2019-01-03T08:10:32.460Z,94.01
2019-01-03T08:11:32.439Z,93.70
2019-01-03T08:12:32.425Z,93.80
2019-01-03T08:13:32.438Z,94.22
2019-01-03T08:14:32.407Z,94.32
2019-01-03T08:15:32.405Z,93.49
2019-01-03T08:16:32.384Z,94.01
2019-01-03T08:17:32.419Z,93.49
2019-01-03T08:18:32.384Z,93.49
2019-01-03T08:19:32.374Z,93.80
2019-01-03T08:20:32.332Z,93.35
2019-01-03T08:21:32.338Z,93.60
2019-01-03T08:22:32.324Z,93.39
2019-01-03T08:23:32.303Z,93.55
2019-01-03T08:24:32.331Z,94.32
2019-01-03T08:25:32.290Z,93.55
2019-01-03T08:26:32.279Z,94.28
2019-01-03T08:27:32.270Z,94.28
2019-01-03T08:28:32.258Z,93.80
2019-01-03T08:29:32.262Z,93.91
2019-01-03T08:30:32.224Z,93.45
2019-01-03T08:31:32.230Z,93.76
2019-01-03T08:32:32.209Z,93.97
2019-01-03T08:33:32.196Z,93.97
2019-01-03T08:34:32.181Z,93.55
2019-01-03T08:35:32.209Z,93.76
2019-01-03T08:36:32.161Z,93.70
2019-01-03T08:37:32.174Z,93.76
2019-01-03T08:38:32.136Z,93.91
2019-01-03T08:39:32.130Z,93.39
2019-01-03T08:40:32.137Z,93.03
2019-01-03T08:41:32.108Z,93.07
2019-01-03T08:42:32.133Z,93.66
2019-01-03T08:43:32.092Z,93.18
2019-01-03T08:44:32.081Z,93.24
2019-01-03T08:45:32.087Z,93.14
2019-01-03T08:46:32.070Z,93.45
2019-01-03T08:47:32.041Z,93.76
2019-01-03T08:48:32.033Z,93.24
2019-01-03T08:49:32.033Z,93.24
2019-01-03T08:50:32.012Z,93.66
2019-01-03T08:51:32.020Z,93.45
2019-01-03T08:52:32.010Z,93.45
2019-01-03T08:53:31.981Z,93.45
2019-01-03T08:54:31.977Z,94.38
2019-01-03T08:55:31.961Z,94.07
2019-01-03T08:56:31.975Z,93.66
2019-01-03T08:57:31.936Z,93.45
2019-01-03T08:58:31.931Z,94.18
2019-01-03T08:59:31.911Z,93.97
2019-01-03T09:00:31.906Z,93.24
2019-01-03T09:01:31.916Z,93.45
2019-01-03T09:02:31.883Z,93.41
2019-01-03T09:03:31.880Z,93.30
2019-01-03T09:04:31.856Z,93.03
2019-01-03T09:05:31.849Z,93.14
2019-01-03T09:06:31.877Z,93.66
2019-01-03T09:07:31.831Z,93.76
2019-01-03T09:08:31.815Z,93.45
2019-01-03T09:09:31.815Z,93.66
2019-01-03T09:10:31.795Z,94.03
2019-01-03T09:11:31.799Z,93.14
2019-01-03T09:12:31.792Z,93.24
2019-01-03T09:13:31.762Z,92.61
2019-01-03T09:14:31.755Z,93.66
2019-01-03T09:15:31.766Z,94.28
2019-01-03T09:16:31.731Z,94.13
2019-01-03T09:17:31.735Z,93.45
2019-01-03T09:18:31.707Z,93.82
2019-01-03T09:19:31.715Z,93.51
2019-01-03T09:20:31.694Z,93.51
2019-01-03T09:21:31.672Z,93.72
2019-01-03T09:22:31.708Z,94.24
2019-01-03T09:23:31.652Z,94.45
2019-01-03T09:24:31.640Z,94.34
2019-01-03T09:25:31.633Z,94.24
2019-01-03T09:26:31.624Z,93.78
2019-01-03T09:27:31.604Z,93.82
2019-01-03T09:28:31.620Z,93.68
2019-01-03T09:29:31.600Z,94.24
2019-01-03T09:30:31.577Z,93.26
2019-01-03T09:31:31.564Z,93.68
2019-01-03T09:32:31.556Z,93.57
2019-01-03T09:33:31.567Z,93.68
2019-01-03T09:34:31.534Z,93.37
2019-01-03T09:35:31.521Z,93.16
2019-01-03T09:36:31.507Z,93.68
2019-01-03T09:37:31.501Z,93.47
2019-01-03T09:38:31.512Z,93.88
2019-01-03T09:39:31.493Z,92.74
2019-01-03T09:40:31.465Z,92.32
2019-01-03T09:41:31.454Z,93.05
2019-01-03T09:42:31.441Z,92.69
2019-01-03T09:43:31.467Z,93.32
2019-01-03T09:44:31.424Z,92.80
2019-01-03T09:45:38.231Z,93.12
2019-01-03T09:46:32.403Z,92.80
2019-01-03T09:47:31.397Z,92.69
2019-01-03T09:48:31.382Z,92.69
2019-01-03T09:49:31.391Z,92.69
2019-01-03T09:50:31.364Z,92.07
2019-01-03T09:51:31.346Z,91.86
2019-01-03T09:52:31.336Z,91.97
2019-01-03T09:53:38.978Z,91.97
2019-01-03T09:54:31.412Z,92.07
2019-01-03T09:55:31.408Z,92.07
2019-01-03T09:56:31.319Z,92.28
2019-01-03T09:57:31.283Z,92.07
2019-01-03T09:58:31.271Z,92.49
2019-01-03T09:59:31.314Z,92.18
2019-01-03T10:00:31.248Z,92.69
2019-01-03T10:01:31.240Z,92.69
2019-01-03T10:02:31.263Z,92.35
2019-01-03T10:03:31.212Z,92.49
2019-01-03T10:04:31.200Z,92.07
2019-01-03T10:05:31.216Z,91.86
2019-01-03T10:06:31.182Z,92.18
2019-01-03T10:07:31.174Z,92.59
2019-01-03T10:08:31.973Z,91.86
2019-01-03T10:09:31.162Z,91.86
2019-01-03T10:10:31.208Z,91.97
2019-01-03T10:11:31.130Z,92.28
2019-01-03T10:12:31.133Z,92.49
2019-01-03T10:13:31.139Z,92.80
2019-01-03T10:14:31.106Z,93.63
2019-01-03T10:15:31.089Z,93.63
2019-01-03T10:16:31.121Z,93.84
2019-01-03T10:17:31.071Z,94.15
2019-01-03T10:18:31.064Z,93.74
2019-01-03T10:19:31.052Z,93.43
2019-01-03T10:20:31.037Z,94.05
2019-01-03T10:21:31.024Z,94.05
2019-01-03T10:22:31.039Z,93.95
2019-01-03T10:23:31.012Z,94.15
2019-01-03T10:24:30.996Z,93.32
2019-01-03T10:25:31.193Z,94.26
2019-01-03T10:26:31.390Z,93.32
2019-01-03T10:27:31.091Z,94.26
2019-01-03T10:28:31.013Z,94.36
2019-01-03T10:29:30.945Z,94.78
2019-01-03T10:30:30.929Z,94.46
2019-01-03T10:31:30.967Z,94.88
2019-01-03T10:32:30.936Z,95.71
2019-01-03T10:33:30.918Z,95.50
2019-01-03T10:34:30.893Z,95.71
2019-01-03T10:35:30.880Z,95.50
2019-01-03T10:36:32.917Z,95.61
2019-01-03T10:37:30.878Z,95.29
2019-01-03T10:38:30.843Z,95.61
2019-01-03T10:39:30.858Z,95.71
2019-01-03T10:40:30.823Z,95.61
2019-01-03T10:41:31.073Z,95.50
2019-01-03T10:42:30.850Z,95.81
2019-01-03T10:43:30.794Z,95.29
2019-01-03T10:44:30.789Z,95.81
2019-01-03T10:45:30.788Z,95.50
2019-01-03T10:46:30.763Z,95.56
2019-01-03T10:47:30.751Z,95.09
2019-01-03T10:48:30.773Z,95.71
2019-01-03T10:49:31.020Z,95.36
2019-01-03T10:50:32.092Z,95.50
2019-01-03T10:51:30.920Z,95.19
2019-01-03T10:52:30.700Z,95.15
2019-01-03T10:53:30.688Z,94.73
2019-01-03T10:54:30.980Z,94.73
2019-01-03T10:55:30.659Z,94.78
2019-01-03T10:56:30.656Z,94.73
2019-01-03T10:57:31.441Z,94.53
2019-01-03T10:58:31.419Z,95.46
2019-01-03T10:59:32.598Z,95.77
2019-01-03T11:00:31.038Z,95.67
2019-01-03T11:01:30.672Z,94.94
2019-01-03T11:02:30.865Z,95.15
2019-01-03T11:03:30.692Z,94.84
2019-01-03T11:04:31.028Z,94.42
2019-01-03T11:05:30.733Z,94.84
2019-01-03T11:06:30.796Z,94.84
2019-01-03T11:07:30.726Z,94.53
2019-01-03T11:08:30.766Z,95.46
2019-01-03T11:09:31.025Z,94.73
2019-01-03T11:10:30.758Z,94.84
2019-01-03T11:11:30.704Z,94.42
2019-01-03T11:12:30.817Z,94.37
2019-01-03T11:13:30.622Z,94.27
2019-01-03T11:14:30.700Z,94.27
2019-01-03T11:15:30.952Z,94.94
2019-01-03T11:16:30.562Z,95.15
2019-01-03T11:17:30.853Z,94.58
2019-01-03T11:18:30.777Z,94.68
2019-01-03T11:19:30.659Z,95.10
2019-01-03T11:20:30.887Z,95.31
2019-01-03T11:21:30.851Z,95.31
2019-01-03T11:22:31.211Z,95.41
2019-01-03T11:23:30.620Z,94.79
2019-01-03T11:24:31.883Z,94.74
2019-01-03T11:25:30.598Z,94.17
2019-01-03T11:26:30.553Z,94.79
2019-01-03T11:27:30.598Z,94.06
2019-01-03T11:28:30.659Z,93.65
2019-01-03T11:29:31.370Z,94.12
2019-01-03T11:30:31.666Z,94.12
2019-01-03T11:31:30.585Z,94.06
2019-01-03T11:32:30.718Z,95.41
2019-01-03T11:33:31.350Z,94.37
2019-01-03T11:34:30.311Z,95.16
2019-01-03T11:35:30.237Z,94.74
2019-01-03T11:36:30.316Z,94.64
2019-01-03T11:37:30.265Z,94.12
2019-01-03T11:38:31.299Z,93.71
2019-01-03T11:39:30.241Z,94.02
2019-01-03T11:40:30.219Z,93.91
2019-01-03T11:41:32.929Z,93.60
2019-01-03T11:42:30.373Z,93.19
2019-01-03T11:43:30.328Z,93.91
2019-01-03T11:44:30.229Z,94.12
2019-01-03T11:45:30.293Z,94.23
2019-01-03T11:46:30.196Z,95.16
2019-01-03T11:47:30.188Z,94.85
2019-01-03T11:48:30.439Z,94.12
2019-01-03T11:49:30.223Z,94.18
2019-01-03T11:50:30.931Z,93.98
2019-01-03T11:51:30.086Z,93.98
2019-01-03T11:52:30.161Z,93.56
2019-01-03T11:53:30.046Z,93.25
2019-01-03T11:54:30.205Z,92.01
2019-01-03T11:55:30.533Z,92.01
2019-01-03T11:56:34.970Z,92.63
2019-01-03T11:57:35.102Z,92.22
2019-01-03T11:58:31.248Z,91.80
2019-01-03T11:59:30.517Z,92.43
2019-01-03T12:00:29.978Z,91.28
2019-01-03T12:01:29.971Z,92.43
2019-01-03T12:02:29.950Z,92.28
2019-01-03T12:03:29.980Z,91.70
2019-01-03T12:04:29.958Z,91.55
2019-01-03T12:05:29.920Z,92.28
2019-01-03T12:06:30.033Z,90.97
2019-01-03T12:07:31.029Z,91.14
2019-01-03T12:08:30.164Z,90.93
2019-01-03T12:09:29.905Z,90.41
2019-01-03T12:10:29.864Z,90.10
2019-01-03T12:11:29.893Z,89.89
2019-01-03T12:12:29.862Z,90.77
2019-01-03T12:13:29.837Z,90.35
2019-01-03T12:14:29.915Z,90.77
2019-01-03T12:15:29.817Z,90.52
2019-01-03T12:16:29.809Z,90.10
2019-01-03T12:17:30.348Z,90.72
2019-01-03T12:18:29.783Z,90.41
2019-01-03T12:19:29.770Z,91.24
2019-01-03T12:20:29.793Z,91.24
2019-01-03T12:21:29.751Z,90.20
2019-01-03T12:22:29.749Z,89.58
2019-01-03T12:23:29.732Z,90.10
2019-01-03T12:24:30.769Z,89.07
2019-01-03T12:25:29.753Z,89.28
2019-01-03T12:26:29.703Z,90.06
2019-01-03T12:27:29.694Z,89.44
2019-01-03T12:28:29.884Z,89.54
2019-01-03T12:29:29.666Z,88.71
2019-01-03T12:30:29.660Z,87.99
2019-01-03T12:31:29.674Z,88.09
2019-01-03T12:32:29.639Z,87.88
2019-01-03T12:33:29.626Z,88.61
2019-01-03T12:34:29.639Z,88.30
2019-01-03T12:35:29.612Z,88.40
2019-01-03T12:36:29.612Z,88.71
2019-01-03T12:37:29.580Z,88.71
2019-01-03T12:38:29.571Z,88.51
2019-01-03T12:39:29.565Z,87.88
2019-01-03T12:40:29.554Z,87.82
2019-01-03T12:41:29.585Z,88.30
2019-01-03T12:42:29.535Z,88.03
2019-01-03T12:43:29.520Z,88.86
2019-01-03T12:44:29.518Z,88.55
2019-01-03T12:45:29.497Z,88.76
2019-01-03T12:46:29.485Z,88.24
2019-01-03T12:47:29.508Z,88.45
2019-01-03T12:48:29.471Z,88.24
2019-01-03T12:49:29.458Z,88.24
2019-01-03T12:50:29.496Z,88.76
2019-01-03T12:51:29.438Z,88.45
2019-01-03T12:52:29.456Z,88.65
2019-01-03T12:53:29.419Z,87.72
2019-01-03T12:54:29.431Z,87.62
2019-01-03T12:55:29.394Z,87.82
2019-01-03T12:56:29.495Z,87.20
2019-01-03T12:57:29.374Z,88.34
2019-01-03T12:58:29.382Z,87.62
2019-01-03T12:59:29.369Z,88.03
2019-01-03T13:00:29.342Z,88.55
2019-01-03T13:01:29.347Z,87.93
2019-01-03T13:02:29.318Z,87.72
2019-01-03T13:03:29.329Z,87.66
2019-01-03T13:04:29.344Z,87.62
2019-01-03T13:05:29.294Z,87.72
2019-01-03T13:06:29.276Z,87.62
2019-01-03T13:07:29.277Z,87.66
2019-01-03T13:08:29.289Z,87.76
2019-01-03T13:09:29.289Z,87.93
2019-01-03T13:10:29.238Z,87.62
2019-01-03T13:11:29.226Z,88.03
2019-01-03T13:12:29.520Z,87.93
2019-01-03T13:13:29.524Z,88.86
2019-01-03T13:14:29.509Z,88.24
2019-01-03T13:15:29.370Z,88.18
2019-01-03T13:16:29.267Z,87.87
2019-01-03T13:17:29.506Z,88.55
2019-01-03T13:18:29.290Z,89.11
2019-01-03T13:19:29.537Z,89.21
2019-01-03T13:20:29.229Z,89.52
2019-01-03T13:21:29.193Z,89.62
2019-01-03T13:22:29.278Z,90.10
2019-01-03T13:23:29.099Z,89.52
2019-01-03T13:24:29.091Z,89.42
2019-01-03T13:25:29.145Z,89.07
2019-01-03T13:26:29.072Z,89.58
2019-01-03T13:27:29.074Z,89.31
2019-01-03T13:28:29.044Z,89.52
2019-01-03T13:29:29.035Z,88.76
2019-01-03T13:30:29.026Z,89.28
2019-01-03T13:31:29.059Z,88.86
2019-01-03T13:32:29.004Z,88.79